sensor_id;sensor_type;location;lat;lon;timestamp;temperature;humidity
17215;DHT22;8723;51.502;6.918;2023-08-24T00:01:03;19.00;1.00
17215;DHT22;8723;51.502;6.918;2023-08-24T00:03:30;18.90;1.00
17215;DHT22;8723;51.502;6.918;2023-08-24T00:05:58;18.90;1.00
17215;DHT22;8723;51.502;6.918;2023-08-24T00:08:25;18.80;1.00
17215;DHT22;8723;51.502;6.918;2023-08-24T00:10:52;18.90;1.00
17215;DHT22;8723;51.502;6.918;2023-08-24T00:13:20;18.80;1.00
17215;DHT22;8723;51.502;6.918;2023-08-24T00:15:47;18.80;1.00
17215;DHT22;8723;51.502;6.918;2023-08-24T00:18:14;18.80;1.00
17215;DHT22;8723;51.502;6.918;2023-08-24T00:20:43;18.80;2.40
17215;DHT22;8723;51.502;6.918;2023-08-24T00:23:10;18.80;1.00
17215;DHT22;8723;51.502;6.918;2023-08-24T00:25:37;18.70;1.00
17215;DHT22;8723;51.502;6.918;2023-08-24T00:28:06;18.70;1.80
17215;DHT22;8723;51.502;6.918;2023-08-24T00:30:34;18.60;4.60
17215;DHT22;8723;51.502;6.918;2023-08-24T00:33:01;18.70;24.80
17215;DHT22;8723;51.502;6.918;2023-08-24T00:35:28;18.70;47.60
17215;DHT22;8723;51.502;6.918;2023-08-24T00:37:56;18.70;31.60
17215;DHT22;8723;51.502;6.918;2023-08-24T00:40:23;18.60;10.90
17215;DHT22;8723;51.502;6.918;2023-08-24T00:42:50;18.60;5.30
17215;DHT22;8723;51.502;6.918;2023-08-24T00:45:17;18.50;10.90
17215;DHT22;8723;51.502;6.918;2023-08-24T00:47:47;18.50;16.30
17215;DHT22;8723;51.502;6.918;2023-08-24T00:50:14;18.40;24.60
17215;DHT22;8723;51.502;6.918;2023-08-24T00:52:42;18.30;37.60
17215;DHT22;8723;51.502;6.918;2023-08-24T00:55:09;18.30;56.50
17215;DHT22;8723;51.502;6.918;2023-08-24T00:57:37;18.30;78.80
17215;DHT22;8723;51.502;6.918;2023-08-24T01:00:06;18.30;84.90
17215;DHT22;8723;51.502;6.918;2023-08-24T01:02:35;18.30;97.90
17215;DHT22;8723;51.502;6.918;2023-08-24T01:05:04;18.30;99.90
17215;DHT22;8723;51.502;6.918;2023-08-24T01:07:32;18.20;99.90
17215;DHT22;8723;51.502;6.918;2023-08-24T01:10:00;18.20;99.90
17215;DHT22;8723;51.502;6.918;2023-08-24T01:12:32;18.00;99.90
17215;DHT22;8723;51.502;6.918;2023-08-24T01:15:06;18.00;99.90
17215;DHT22;8723;51.502;6.918;2023-08-24T01:17:35;18.10;99.90
17215;DHT22;8723;51.502;6.918;2023-08-24T01:20:05;18.10;99.90
17215;DHT22;8723;51.502;6.918;2023-08-24T01:22:41;18.10;99.90
17215;DHT22;8723;51.502;6.918;2023-08-24T01:25:13;18.10;99.90
17215;DHT22;8723;51.502;6.918;2023-08-24T01:27:43;18.10;99.90
17215;DHT22;8723;51.502;6.918;2023-08-24T01:30:11;18.00;99.90
17215;DHT22;8723;51.502;6.918;2023-08-24T01:32:38;18.00;99.90
17215;DHT22;8723;51.502;6.918;2023-08-24T01:35:08;17.90;99.90
17215;DHT22;8723;51.502;6.918;2023-08-24T01:37:36;17.90;99.90
17215;DHT22;8723;51.502;6.918;2023-08-24T01:40:05;17.90;99.90
17215;DHT22;8723;51.502;6.918;2023-08-24T01:42:40;17.90;99.90
17215;DHT22;8723;51.502;6.918;2023-08-24T01:45:13;17.90;99.90
17215;DHT22;8723;51.502;6.918;2023-08-24T01:47:42;17.90;99.90
17215;DHT22;8723;51.502;6.918;2023-08-24T01:50:12;17.90;99.90
17215;DHT22;8723;51.502;6.918;2023-08-24T01:52:43;18.00;99.90
17215;DHT22;8723;51.502;6.918;2023-08-24T01:55:13;18.00;99.90
17215;DHT22;8723;51.502;6.918;2023-08-24T01:57:43;18.00;99.90
17215;DHT22;8723;51.502;6.918;2023-08-24T02:00:14;18.00;99.90
17215;DHT22;8723;51.502;6.918;2023-08-24T02:02:45;18.00;99.90
17215;DHT22;8723;51.502;6.918;2023-08-24T02:05:13;18.00;99.90
17215;DHT22;8723;51.502;6.918;2023-08-24T02:07:42;18.00;99.90
17215;DHT22;8723;51.502;6.918;2023-08-24T02:10:10;18.00;99.90
17215;DHT22;8723;51.502;6.918;2023-08-24T02:12:37;17.90;99.90
17215;DHT22;8723;51.502;6.918;2023-08-24T02:15:05;17.90;99.90
17215;DHT22;8723;51.502;6.918;2023-08-24T02:17:35;17.80;99.90
17215;DHT22;8723;51.502;6.918;2023-08-24T02:20:06;17.80;99.90
17215;DHT22;8723;51.502;6.918;2023-08-24T02:22:38;17.80;99.90
17215;DHT22;8723;51.502;6.918;2023-08-24T02:25:07;17.80;99.90
17215;DHT22;8723;51.502;6.918;2023-08-24T02:27:35;17.80;99.90
17215;DHT22;8723;51.502;6.918;2023-08-24T02:30:05;17.80;99.90
17215;DHT22;8723;51.502;6.918;2023-08-24T02:32:37;17.80;99.90
17215;DHT22;8723;51.502;6.918;2023-08-24T02:35:06;17.70;99.90
17215;DHT22;8723;51.502;6.918;2023-08-24T02:37:34;17.60;99.90
17215;DHT22;8723;51.502;6.918;2023-08-24T02:40:01;17.70;99.90
17215;DHT22;8723;51.502;6.918;2023-08-24T02:42:30;17.70;99.90
17215;DHT22;8723;51.502;6.918;2023-08-24T02:44:57;17.70;99.90
17215;DHT22;8723;51.502;6.918;2023-08-24T02:47:24;17.70;99.90
17215;DHT22;8723;51.502;6.918;2023-08-24T02:49:52;17.70;99.90
17215;DHT22;8723;51.502;6.918;2023-08-24T02:52:19;17.70;99.90
17215;DHT22;8723;51.502;6.918;2023-08-24T02:54:46;17.80;99.90
17215;DHT22;8723;51.502;6.918;2023-08-24T02:57:13;17.80;99.90
17215;DHT22;8723;51.502;6.918;2023-08-24T02:59:39;17.80;99.90
17215;DHT22;8723;51.502;6.918;2023-08-24T03:02:10;17.90;99.90
17215;DHT22;8723;51.502;6.918;2023-08-24T03:04:39;17.90;99.90
17215;DHT22;8723;51.502;6.918;2023-08-24T03:07:10;17.90;99.90
17215;DHT22;8723;51.502;6.918;2023-08-24T03:09:39;17.90;99.90
17215;DHT22;8723;51.502;6.918;2023-08-24T03:12:09;17.90;99.90
17215;DHT22;8723;51.502;6.918;2023-08-24T03:14:38;17.90;99.90
17215;DHT22;8723;51.502;6.918;2023-08-24T03:17:05;17.90;99.90
17215;DHT22;8723;51.502;6.918;2023-08-24T03:19:33;17.90;99.90
17215;DHT22;8723;51.502;6.918;2023-08-24T03:21:59;17.90;99.90
17215;DHT22;8723;51.502;6.918;2023-08-24T03:24:27;17.90;99.90
17215;DHT22;8723;51.502;6.918;2023-08-24T03:26:54;17.90;99.90
17215;DHT22;8723;51.502;6.918;2023-08-24T03:29:21;17.90;99.90
17215;DHT22;8723;51.502;6.918;2023-08-24T03:31:48;18.00;99.90
17215;DHT22;8723;51.502;6.918;2023-08-24T03:34:15;18.00;99.90
17215;DHT22;8723;51.502;6.918;2023-08-24T03:36:42;18.00;99.90
17215;DHT22;8723;51.502;6.918;2023-08-24T03:39:08;18.10;99.90
17215;DHT22;8723;51.502;6.918;2023-08-24T03:41:38;18.10;99.90
17215;DHT22;8723;51.502;6.918;2023-08-24T03:44:05;18.20;99.90
17215;DHT22;8723;51.502;6.918;2023-08-24T03:46:31;18.20;99.90
17215;DHT22;8723;51.502;6.918;2023-08-24T03:48:58;18.20;99.90
17215;DHT22;8723;51.502;6.918;2023-08-24T03:51:25;18.30;99.90
17215;DHT22;8723;51.502;6.918;2023-08-24T03:53:53;18.30;99.90
17215;DHT22;8723;51.502;6.918;2023-08-24T03:56:20;18.30;99.90
17215;DHT22;8723;51.502;6.918;2023-08-24T03:58:48;18.30;99.90
17215;DHT22;8723;51.502;6.918;2023-08-24T04:01:15;18.30;99.90
17215;DHT22;8723;51.502;6.918;2023-08-24T04:03:42;18.40;99.90
17215;DHT22;8723;51.502;6.918;2023-08-24T04:06:09;18.40;99.90
17215;DHT22;8723;51.502;6.918;2023-08-24T04:08:36;18.40;99.90
17215;DHT22;8723;51.502;6.918;2023-08-24T04:11:02;18.40;99.90
17215;DHT22;8723;51.502;6.918;2023-08-24T04:13:29;18.40;99.90
17215;DHT22;8723;51.502;6.918;2023-08-24T04:15:58;18.40;99.90
17215;DHT22;8723;51.502;6.918;2023-08-24T04:18:24;18.30;99.90
17215;DHT22;8723;51.502;6.918;2023-08-24T04:20:52;18.30;99.90
17215;DHT22;8723;51.502;6.918;2023-08-24T04:23:23;18.40;99.90
17215;DHT22;8723;51.502;6.918;2023-08-24T04:25:50;18.40;1.00
17215;DHT22;8723;51.502;6.918;2023-08-24T04:28:17;18.40;99.90
17215;DHT22;8723;51.502;6.918;2023-08-24T04:30:49;18.30;99.90
17215;DHT22;8723;51.502;6.918;2023-08-24T04:33:18;18.30;99.90
17215;DHT22;8723;51.502;6.918;2023-08-24T04:35:46;18.40;1.00
17215;DHT22;8723;51.502;6.918;2023-08-24T04:38:13;18.40;1.00
17215;DHT22;8723;51.502;6.918;2023-08-24T04:40:50;18.40;67.80
17215;DHT22;8723;51.502;6.918;2023-08-24T04:43:17;18.40;1.00
17215;DHT22;8723;51.502;6.918;2023-08-24T04:45:46;18.40;91.80
17215;DHT22;8723;51.502;6.918;2023-08-24T04:48:14;18.40;97.60
17215;DHT22;8723;51.502;6.918;2023-08-24T04:50:43;18.40;99.90
17215;DHT22;8723;51.502;6.918;2023-08-24T04:53:10;18.40;99.90
17215;DHT22;8723;51.502;6.918;2023-08-24T04:55:37;18.40;1.00
17215;DHT22;8723;51.502;6.918;2023-08-24T04:58:04;18.40;1.00
17215;DHT22;8723;51.502;6.918;2023-08-24T05:00:31;18.40;1.00
17215;DHT22;8723;51.502;6.918;2023-08-24T05:02:58;18.40;1.00
17215;DHT22;8723;51.502;6.918;2023-08-24T05:05:25;18.40;1.00
17215;DHT22;8723;51.502;6.918;2023-08-24T05:07:53;18.40;1.00
17215;DHT22;8723;51.502;6.918;2023-08-24T05:10:21;18.40;1.00
17215;DHT22;8723;51.502;6.918;2023-08-24T05:12:48;18.40;1.00
17215;DHT22;8723;51.502;6.918;2023-08-24T05:15:14;18.50;99.90
17215;DHT22;8723;51.502;6.918;2023-08-24T05:17:41;18.50;1.00
17215;DHT22;8723;51.502;6.918;2023-08-24T05:20:09;18.50;1.00
17215;DHT22;8723;51.502;6.918;2023-08-24T05:22:36;18.50;99.90
17215;DHT22;8723;51.502;6.918;2023-08-24T05:25:05;18.50;99.90
17215;DHT22;8723;51.502;6.918;2023-08-24T05:27:32;18.40;99.90
17215;DHT22;8723;51.502;6.918;2023-08-24T05:29:59;18.50;53.70
17215;DHT22;8723;51.502;6.918;2023-08-24T05:32:26;18.40;1.00
17215;DHT22;8723;51.502;6.918;2023-08-24T05:34:54;18.50;1.00
17215;DHT22;8723;51.502;6.918;2023-08-24T05:37:20;18.50;1.00
17215;DHT22;8723;51.502;6.918;2023-08-24T05:39:47;18.50;1.00
17215;DHT22;8723;51.502;6.918;2023-08-24T05:42:15;18.50;1.00
17215;DHT22;8723;51.502;6.918;2023-08-24T05:44:42;18.50;1.00
17215;DHT22;8723;51.502;6.918;2023-08-24T05:47:09;18.60;1.00
17215;DHT22;8723;51.502;6.918;2023-08-24T05:49:35;18.60;1.00
17215;DHT22;8723;51.502;6.918;2023-08-24T05:52:03;18.60;1.00
17215;DHT22;8723;51.502;6.918;2023-08-24T05:54:30;18.60;1.00
17215;DHT22;8723;51.502;6.918;2023-08-24T05:56:58;18.60;1.00
17215;DHT22;8723;51.502;6.918;2023-08-24T05:59:27;18.70;99.90
17215;DHT22;8723;51.502;6.918;2023-08-24T06:01:54;18.70;99.90
17215;DHT22;8723;51.502;6.918;2023-08-24T06:04:21;18.70;99.90
17215;DHT22;8723;51.502;6.918;2023-08-24T06:06:48;18.70;99.90
17215;DHT22;8723;51.502;6.918;2023-08-24T06:09:14;18.70;99.90
17215;DHT22;8723;51.502;6.918;2023-08-24T06:11:41;18.70;99.90
17215;DHT22;8723;51.502;6.918;2023-08-24T06:14:08;18.80;99.90
17215;DHT22;8723;51.502;6.918;2023-08-24T06:16:36;18.80;99.90
17215;DHT22;8723;51.502;6.918;2023-08-24T06:19:03;18.80;99.90
17215;DHT22;8723;51.502;6.918;2023-08-24T06:21:30;18.80;99.90
17215;DHT22;8723;51.502;6.918;2023-08-24T06:23:57;18.80;99.90
17215;DHT22;8723;51.502;6.918;2023-08-24T06:26:23;18.80;99.90
17215;DHT22;8723;51.502;6.918;2023-08-24T06:28:51;18.80;99.90
17215;DHT22;8723;51.502;6.918;2023-08-24T06:31:17;18.90;99.90
17215;DHT22;8723;51.502;6.918;2023-08-24T06:33:46;18.90;99.90
17215;DHT22;8723;51.502;6.918;2023-08-24T06:36:12;18.90;99.90
17215;DHT22;8723;51.502;6.918;2023-08-24T06:38:39;18.90;99.90
17215;DHT22;8723;51.502;6.918;2023-08-24T06:41:06;18.90;99.90
17215;DHT22;8723;51.502;6.918;2023-08-24T06:43:36;18.90;99.90
17215;DHT22;8723;51.502;6.918;2023-08-24T06:46:04;19.00;99.90
17215;DHT22;8723;51.502;6.918;2023-08-24T06:48:33;19.00;99.90
17215;DHT22;8723;51.502;6.918;2023-08-24T06:51:01;19.00;99.90
17215;DHT22;8723;51.502;6.918;2023-08-24T06:53:28;19.10;99.90
17215;DHT22;8723;51.502;6.918;2023-08-24T06:55:55;19.10;99.90
17215;DHT22;8723;51.502;6.918;2023-08-24T06:58:22;19.20;99.90
17215;DHT22;8723;51.502;6.918;2023-08-24T07:00:49;19.20;99.90
17215;DHT22;8723;51.502;6.918;2023-08-24T07:03:17;19.20;99.90
17215;DHT22;8723;51.502;6.918;2023-08-24T07:05:44;19.30;99.90
17215;DHT22;8723;51.502;6.918;2023-08-24T07:08:12;19.40;99.90
17215;DHT22;8723;51.502;6.918;2023-08-24T07:10:39;19.40;98.30
17215;DHT22;8723;51.502;6.918;2023-08-24T07:13:07;19.40;67.90
17215;DHT22;8723;51.502;6.918;2023-08-24T07:15:34;19.50;41.00
17215;DHT22;8723;51.502;6.918;2023-08-24T07:18:01;19.50;5.20
17215;DHT22;8723;51.502;6.918;2023-08-24T07:20:32;19.60;1.00
17215;DHT22;8723;51.502;6.918;2023-08-24T07:22:59;19.70;1.00
17215;DHT22;8723;51.502;6.918;2023-08-24T07:25:27;19.70;1.00
17215;DHT22;8723;51.502;6.918;2023-08-24T07:27:54;19.70;1.00
17215;DHT22;8723;51.502;6.918;2023-08-24T07:30:23;19.80;1.00
17215;DHT22;8723;51.502;6.918;2023-08-24T07:32:50;19.80;1.00
17215;DHT22;8723;51.502;6.918;2023-08-24T07:35:17;19.80;1.00
17215;DHT22;8723;51.502;6.918;2023-08-24T07:37:46;19.90;1.00
17215;DHT22;8723;51.502;6.918;2023-08-24T07:40:13;19.90;1.00
17215;DHT22;8723;51.502;6.918;2023-08-24T07:42:46;20.00;1.00
17215;DHT22;8723;51.502;6.918;2023-08-24T07:45:13;20.10;1.00
17215;DHT22;8723;51.502;6.918;2023-08-24T07:47:40;20.20;1.00
17215;DHT22;8723;51.502;6.918;2023-08-24T07:50:08;20.30;1.00
17215;DHT22;8723;51.502;6.918;2023-08-24T07:52:36;20.30;1.00
17215;DHT22;8723;51.502;6.918;2023-08-24T07:55:04;20.50;1.00
17215;DHT22;8723;51.502;6.918;2023-08-24T07:57:32;20.50;1.00
17215;DHT22;8723;51.502;6.918;2023-08-24T08:00:00;20.50;1.00
17215;DHT22;8723;51.502;6.918;2023-08-24T08:02:28;20.60;1.00
17215;DHT22;8723;51.502;6.918;2023-08-24T08:04:56;20.80;1.00
17215;DHT22;8723;51.502;6.918;2023-08-24T08:07:24;20.90;1.00
17215;DHT22;8723;51.502;6.918;2023-08-24T08:09:51;21.10;1.00
17215;DHT22;8723;51.502;6.918;2023-08-24T08:12:18;21.10;1.00
17215;DHT22;8723;51.502;6.918;2023-08-24T08:14:45;21.20;1.00
17215;DHT22;8723;51.502;6.918;2023-08-24T08:17:13;21.40;1.00
17215;DHT22;8723;51.502;6.918;2023-08-24T08:19:40;21.60;1.00
17215;DHT22;8723;51.502;6.918;2023-08-24T08:22:07;21.70;1.00
17215;DHT22;8723;51.502;6.918;2023-08-24T08:24:34;21.90;1.00
17215;DHT22;8723;51.502;6.918;2023-08-24T08:27:00;22.10;1.00
17215;DHT22;8723;51.502;6.918;2023-08-24T08:29:28;22.20;1.00
17215;DHT22;8723;51.502;6.918;2023-08-24T08:31:55;22.30;1.00
17215;DHT22;8723;51.502;6.918;2023-08-24T08:34:23;22.40;1.00
17215;DHT22;8723;51.502;6.918;2023-08-24T08:36:50;22.60;1.00
17215;DHT22;8723;51.502;6.918;2023-08-24T08:39:17;22.70;1.00
17215;DHT22;8723;51.502;6.918;2023-08-24T08:41:46;22.80;1.00
17215;DHT22;8723;51.502;6.918;2023-08-24T08:44:13;22.90;1.00
17215;DHT22;8723;51.502;6.918;2023-08-24T08:46:41;23.00;1.00
17215;DHT22;8723;51.502;6.918;2023-08-24T08:49:08;23.10;1.00
17215;DHT22;8723;51.502;6.918;2023-08-24T08:51:38;23.30;1.00
17215;DHT22;8723;51.502;6.918;2023-08-24T08:54:05;23.40;1.00
17215;DHT22;8723;51.502;6.918;2023-08-24T08:56:32;23.50;1.00
17215;DHT22;8723;51.502;6.918;2023-08-24T08:59:00;23.60;1.00
17215;DHT22;8723;51.502;6.918;2023-08-24T09:01:27;23.80;1.00
17215;DHT22;8723;51.502;6.918;2023-08-24T09:03:55;23.80;1.00
17215;DHT22;8723;51.502;6.918;2023-08-24T09:06:23;24.00;1.00
17215;DHT22;8723;51.502;6.918;2023-08-24T09:08:52;24.00;1.00
17215;DHT22;8723;51.502;6.918;2023-08-24T09:11:19;24.20;1.00
17215;DHT22;8723;51.502;6.918;2023-08-24T09:13:47;24.30;1.00
17215;DHT22;8723;51.502;6.918;2023-08-24T09:16:14;24.30;1.00
17215;DHT22;8723;51.502;6.918;2023-08-24T09:18:45;24.50;1.00
17215;DHT22;8723;51.502;6.918;2023-08-24T09:21:14;24.60;1.00
17215;DHT22;8723;51.502;6.918;2023-08-24T09:23:44;24.70;1.00
17215;DHT22;8723;51.502;6.918;2023-08-24T09:26:13;24.80;1.00
17215;DHT22;8723;51.502;6.918;2023-08-24T09:28:42;24.90;1.00
17215;DHT22;8723;51.502;6.918;2023-08-24T09:31:12;25.00;1.00
17215;DHT22;8723;51.502;6.918;2023-08-24T09:33:42;25.20;1.00
17215;DHT22;8723;51.502;6.918;2023-08-24T09:36:13;25.20;1.00
17215;DHT22;8723;51.502;6.918;2023-08-24T09:38:46;25.40;1.00
17215;DHT22;8723;51.502;6.918;2023-08-24T09:41:16;25.40;1.00
17215;DHT22;8723;51.502;6.918;2023-08-24T09:43:43;25.50;1.00
17215;DHT22;8723;51.502;6.918;2023-08-24T09:46:10;25.60;1.00
17215;DHT22;8723;51.502;6.918;2023-08-24T09:48:37;25.70;1.00
17215;DHT22;8723;51.502;6.918;2023-08-24T09:51:04;25.70;1.00
17215;DHT22;8723;51.502;6.918;2023-08-24T09:53:33;25.70;1.00
17215;DHT22;8723;51.502;6.918;2023-08-24T09:56:04;25.70;1.00
17215;DHT22;8723;51.502;6.918;2023-08-24T09:58:35;25.70;1.00
17215;DHT22;8723;51.502;6.918;2023-08-24T10:01:06;25.90;1.00
17215;DHT22;8723;51.502;6.918;2023-08-24T10:03:36;26.00;1.00
17215;DHT22;8723;51.502;6.918;2023-08-24T10:06:08;26.00;1.00
17215;DHT22;8723;51.502;6.918;2023-08-24T10:08:39;26.10;1.00
17215;DHT22;8723;51.502;6.918;2023-08-24T10:11:08;26.10;1.00
17215;DHT22;8723;51.502;6.918;2023-08-24T10:13:41;26.20;1.00
17215;DHT22;8723;51.502;6.918;2023-08-24T10:16:12;26.10;1.00
17215;DHT22;8723;51.502;6.918;2023-08-24T10:18:40;26.30;1.00
17215;DHT22;8723;51.502;6.918;2023-08-24T10:21:07;26.30;1.00
17215;DHT22;8723;51.502;6.918;2023-08-24T10:23:35;26.30;1.00
17215;DHT22;8723;51.502;6.918;2023-08-24T10:26:03;26.40;1.00
17215;DHT22;8723;51.502;6.918;2023-08-24T10:28:31;26.50;1.00
17215;DHT22;8723;51.502;6.918;2023-08-24T10:31:01;26.60;1.00
17215;DHT22;8723;51.502;6.918;2023-08-24T10:33:29;26.70;1.00
17215;DHT22;8723;51.502;6.918;2023-08-24T10:35:58;26.70;1.00
17215;DHT22;8723;51.502;6.918;2023-08-24T10:38:25;26.70;1.00
17215;DHT22;8723;51.502;6.918;2023-08-24T10:40:53;26.80;1.00
17215;DHT22;8723;51.502;6.918;2023-08-24T10:43:22;26.90;1.00
17215;DHT22;8723;51.502;6.918;2023-08-24T10:46:00;27.10;1.00
17215;DHT22;8723;51.502;6.918;2023-08-24T10:48:30;27.10;1.00
17215;DHT22;8723;51.502;6.918;2023-08-24T10:51:16;27.10;1.00
17215;DHT22;8723;51.502;6.918;2023-08-24T10:53:46;27.20;1.00
17215;DHT22;8723;51.502;6.918;2023-08-24T10:56:13;27.20;1.00
17215;DHT22;8723;51.502;6.918;2023-08-24T10:58:40;27.30;1.00
17215;DHT22;8723;51.502;6.918;2023-08-24T11:01:14;27.40;1.00
17215;DHT22;8723;51.502;6.918;2023-08-24T11:03:41;27.40;1.00
17215;DHT22;8723;51.502;6.918;2023-08-24T11:06:19;27.40;1.00
17215;DHT22;8723;51.502;6.918;2023-08-24T11:08:47;27.50;1.00
17215;DHT22;8723;51.502;6.918;2023-08-24T11:11:22;27.50;1.00
17215;DHT22;8723;51.502;6.918;2023-08-24T11:14:14;27.50;1.00
17215;DHT22;8723;51.502;6.918;2023-08-24T11:16:44;27.60;1.00
17215;DHT22;8723;51.502;6.918;2023-08-24T11:19:12;27.70;1.00
17215;DHT22;8723;51.502;6.918;2023-08-24T11:21:40;27.70;1.00
17215;DHT22;8723;51.502;6.918;2023-08-24T11:24:07;27.60;1.00
17215;DHT22;8723;51.502;6.918;2023-08-24T11:26:38;27.70;1.00
17215;DHT22;8723;51.502;6.918;2023-08-24T11:29:05;27.70;1.00
17215;DHT22;8723;51.502;6.918;2023-08-24T11:31:33;27.60;1.00
17215;DHT22;8723;51.502;6.918;2023-08-24T11:34:02;27.60;1.00
17215;DHT22;8723;51.502;6.918;2023-08-24T11:36:29;27.70;1.00
17215;DHT22;8723;51.502;6.918;2023-08-24T11:38:58;27.60;1.00
17215;DHT22;8723;51.502;6.918;2023-08-24T11:41:25;27.60;1.00
17215;DHT22;8723;51.502;6.918;2023-08-24T11:43:59;27.60;1.00
17215;DHT22;8723;51.502;6.918;2023-08-24T11:46:28;27.60;1.00
17215;DHT22;8723;51.502;6.918;2023-08-24T11:48:57;27.50;1.00
17215;DHT22;8723;51.502;6.918;2023-08-24T11:51:25;27.30;1.00
17215;DHT22;8723;51.502;6.918;2023-08-24T11:53:52;27.20;1.00
17215;DHT22;8723;51.502;6.918;2023-08-24T11:56:19;27.20;1.00
17215;DHT22;8723;51.502;6.918;2023-08-24T11:58:48;27.20;1.00
17215;DHT22;8723;51.502;6.918;2023-08-24T12:01:16;27.20;1.00
17215;DHT22;8723;51.502;6.918;2023-08-24T12:03:43;27.30;1.00
17215;DHT22;8723;51.502;6.918;2023-08-24T12:06:11;27.30;1.00
17215;DHT22;8723;51.502;6.918;2023-08-24T12:08:40;27.30;1.00
17215;DHT22;8723;51.502;6.918;2023-08-24T12:11:12;27.40;1.00
17215;DHT22;8723;51.502;6.918;2023-08-24T12:13:43;27.40;1.00
17215;DHT22;8723;51.502;6.918;2023-08-24T12:16:10;27.40;1.00
17215;DHT22;8723;51.502;6.918;2023-08-24T12:18:47;27.40;1.00
17215;DHT22;8723;51.502;6.918;2023-08-24T12:21:14;27.40;1.00
17215;DHT22;8723;51.502;6.918;2023-08-24T12:23:42;27.30;1.00
17215;DHT22;8723;51.502;6.918;2023-08-24T12:26:17;27.40;1.00
17215;DHT22;8723;51.502;6.918;2023-08-24T12:28:49;27.40;1.00
17215;DHT22;8723;51.502;6.918;2023-08-24T12:31:17;27.40;1.00
17215;DHT22;8723;51.502;6.918;2023-08-24T12:33:43;27.50;1.00
17215;DHT22;8723;51.502;6.918;2023-08-24T12:36:11;27.40;1.00
17215;DHT22;8723;51.502;6.918;2023-08-24T12:38:38;27.40;1.00
17215;DHT22;8723;51.502;6.918;2023-08-24T12:41:08;27.40;1.00
17215;DHT22;8723;51.502;6.918;2023-08-24T12:43:35;27.40;1.00
17215;DHT22;8723;51.502;6.918;2023-08-24T12:46:02;27.30;1.00
17215;DHT22;8723;51.502;6.918;2023-08-24T12:48:29;27.30;1.00
17215;DHT22;8723;51.502;6.918;2023-08-24T12:50:55;27.30;1.00
17215;DHT22;8723;51.502;6.918;2023-08-24T12:53:22;27.20;1.00
17215;DHT22;8723;51.502;6.918;2023-08-24T12:55:49;27.10;1.00
17215;DHT22;8723;51.502;6.918;2023-08-24T12:58:17;27.00;1.00
17215;DHT22;8723;51.502;6.918;2023-08-24T13:00:45;26.90;1.00
17215;DHT22;8723;51.502;6.918;2023-08-24T13:03:12;26.80;1.00
17215;DHT22;8723;51.502;6.918;2023-08-24T13:05:39;26.70;1.00
17215;DHT22;8723;51.502;6.918;2023-08-24T13:08:06;26.70;1.00
17215;DHT22;8723;51.502;6.918;2023-08-24T13:10:33;26.70;1.00
17215;DHT22;8723;51.502;6.918;2023-08-24T13:13:01;26.80;1.00
17215;DHT22;8723;51.502;6.918;2023-08-24T13:15:29;26.80;1.00
17215;DHT22;8723;51.502;6.918;2023-08-24T13:17:56;26.90;1.00
17215;DHT22;8723;51.502;6.918;2023-08-24T13:20:23;26.90;1.00
17215;DHT22;8723;51.502;6.918;2023-08-24T13:22:51;26.90;1.00
17215;DHT22;8723;51.502;6.918;2023-08-24T13:25:18;27.00;1.00
17215;DHT22;8723;51.502;6.918;2023-08-24T13:27:45;27.00;1.00
17215;DHT22;8723;51.502;6.918;2023-08-24T13:30:12;27.00;1.00
17215;DHT22;8723;51.502;6.918;2023-08-24T13:32:40;26.90;1.00
17215;DHT22;8723;51.502;6.918;2023-08-24T13:35:08;26.90;1.00
17215;DHT22;8723;51.502;6.918;2023-08-24T13:37:35;26.90;1.00
17215;DHT22;8723;51.502;6.918;2023-08-24T13:40:02;26.90;1.00
17215;DHT22;8723;51.502;6.918;2023-08-24T13:42:29;26.90;1.00
17215;DHT22;8723;51.502;6.918;2023-08-24T13:44:56;26.90;1.00
17215;DHT22;8723;51.502;6.918;2023-08-24T13:47:23;26.90;1.00
17215;DHT22;8723;51.502;6.918;2023-08-24T13:49:51;26.80;1.00
17215;DHT22;8723;51.502;6.918;2023-08-24T13:52:18;26.90;1.00
17215;DHT22;8723;51.502;6.918;2023-08-24T13:54:45;26.80;1.00
17215;DHT22;8723;51.502;6.918;2023-08-24T13:57:12;26.70;1.00
17215;DHT22;8723;51.502;6.918;2023-08-24T13:59:38;26.70;1.00
17215;DHT22;8723;51.502;6.918;2023-08-24T14:02:05;26.60;1.00
17215;DHT22;8723;51.502;6.918;2023-08-24T14:04:32;26.60;1.00
17215;DHT22;8723;51.502;6.918;2023-08-24T14:07:00;26.60;1.00
17215;DHT22;8723;51.502;6.918;2023-08-24T14:09:27;26.50;1.00
17215;DHT22;8723;51.502;6.918;2023-08-24T14:11:54;26.50;1.00
17215;DHT22;8723;51.502;6.918;2023-08-24T14:14:21;26.50;1.00
17215;DHT22;8723;51.502;6.918;2023-08-24T14:16:53;26.50;1.00
17215;DHT22;8723;51.502;6.918;2023-08-24T14:19:20;26.50;1.00
17215;DHT22;8723;51.502;6.918;2023-08-24T14:21:47;26.50;1.00
17215;DHT22;8723;51.502;6.918;2023-08-24T14:24:15;26.50;1.00
17215;DHT22;8723;51.502;6.918;2023-08-24T14:26:42;26.50;1.00
17215;DHT22;8723;51.502;6.918;2023-08-24T14:29:12;26.50;1.00
17215;DHT22;8723;51.502;6.918;2023-08-24T14:31:39;26.50;1.00
17215;DHT22;8723;51.502;6.918;2023-08-24T14:34:06;26.50;1.00
17215;DHT22;8723;51.502;6.918;2023-08-24T14:36:32;26.40;1.00
17215;DHT22;8723;51.502;6.918;2023-08-24T14:38:59;26.30;1.00
17215;DHT22;8723;51.502;6.918;2023-08-24T14:41:27;26.40;1.00
17215;DHT22;8723;51.502;6.918;2023-08-24T14:43:54;26.40;1.00
17215;DHT22;8723;51.502;6.918;2023-08-24T14:46:21;26.30;1.00
17215;DHT22;8723;51.502;6.918;2023-08-24T14:48:48;26.30;1.00
17215;DHT22;8723;51.502;6.918;2023-08-24T14:51:15;26.30;1.00
17215;DHT22;8723;51.502;6.918;2023-08-24T14:53:41;26.20;1.00
17215;DHT22;8723;51.502;6.918;2023-08-24T14:56:08;26.10;1.00
17215;DHT22;8723;51.502;6.918;2023-08-24T14:58:37;26.00;1.00
17215;DHT22;8723;51.502;6.918;2023-08-24T15:01:04;25.90;1.00
17215;DHT22;8723;51.502;6.918;2023-08-24T15:03:31;25.90;1.00
17215;DHT22;8723;51.502;6.918;2023-08-24T15:06:00;25.80;1.00
17215;DHT22;8723;51.502;6.918;2023-08-24T15:08:29;25.80;1.00
17215;DHT22;8723;51.502;6.918;2023-08-24T15:10:57;25.80;1.00
17215;DHT22;8723;51.502;6.918;2023-08-24T15:13:25;25.70;1.00
17215;DHT22;8723;51.502;6.918;2023-08-24T15:15:55;25.80;1.00
17215;DHT22;8723;51.502;6.918;2023-08-24T15:18:22;25.80;1.00
17215;DHT22;8723;51.502;6.918;2023-08-24T15:20:49;25.70;1.00
17215;DHT22;8723;51.502;6.918;2023-08-24T15:23:23;25.60;1.00
17215;DHT22;8723;51.502;6.918;2023-08-24T15:25:50;25.50;1.00
17215;DHT22;8723;51.502;6.918;2023-08-24T15:28:17;25.40;1.00
17215;DHT22;8723;51.502;6.918;2023-08-24T15:30:44;25.40;1.00
17215;DHT22;8723;51.502;6.918;2023-08-24T15:33:12;25.40;1.00
17215;DHT22;8723;51.502;6.918;2023-08-24T15:35:40;25.30;1.00
17215;DHT22;8723;51.502;6.918;2023-08-24T15:38:07;25.30;1.00
17215;DHT22;8723;51.502;6.918;2023-08-24T15:40:34;25.20;1.00
17215;DHT22;8723;51.502;6.918;2023-08-24T15:43:02;25.20;1.00
17215;DHT22;8723;51.502;6.918;2023-08-24T15:45:29;25.10;1.00
17215;DHT22;8723;51.502;6.918;2023-08-24T15:47:56;25.00;1.00
17215;DHT22;8723;51.502;6.918;2023-08-24T15:50:24;25.00;1.00
17215;DHT22;8723;51.502;6.918;2023-08-24T15:52:52;24.90;1.00
17215;DHT22;8723;51.502;6.918;2023-08-24T15:55:23;24.80;1.00
17215;DHT22;8723;51.502;6.918;2023-08-24T15:57:51;24.70;1.00
17215;DHT22;8723;51.502;6.918;2023-08-24T16:00:18;24.60;1.00
17215;DHT22;8723;51.502;6.918;2023-08-24T16:02:45;24.60;1.00